• Join FlightAware (Why Join?)
  • Login
  • US Flag 
09:35AM EDT


 

Airport Tracker/Info


-or-


 

Live Flight TrackerFlight Track Log ✈ RPA3247 ✈ 01-May-2013 ✈ KDCA - KMSY

Flight Track Log - Related Links

Times and Time Zones

All times are in EDT time to prevent confusion due to time zone crossing. See the RPA3247 flight status page for this flight to view local times or setup timezone preferences in your user account.

Time Position Orientation Groundspeed Altitude Reporting Facility
EDT Latitude Longitude Course Direction KTS MPH feet Rate Location/Type
09:32PM 38.8167 -77.0333 233° Southwest 156 180 1,600  Level Potomac TRACON
09:34PM 38.6852 -77.3463 237° Southwest  Level FlightAware Approximate
09:34PM 38.6897 -77.0572 188° South 220 253 6,200  Level Washington Center
09:35PM 38.6266 -77.4494 234° Southwest  Level FlightAware Approximate
09:35PM 38.6636 -77.1522 251° West 214 246 9,200  Level Washington Center
09:36PM 38.5841 -77.5642 247° West  Level FlightAware Approximate
09:36PM 38.6369 -77.2581 252° West 265 305 10,800  Level Washington Center
09:37PM 38.5283 -77.6695 233° Southwest  Level FlightAware Approximate
09:37PM 38.6039 -77.3850 252° West 326 375 12,600  Level Washington Center
09:38PM 38.5667 -77.5142 250° West 374 430 14,500 1,980 Climbing Washington Center
09:39PM 38.5228 -77.6431 247° West 394 453 16,700 1,860 Climbing Washington Center
09:40PM 38.4703 -77.7767 243° Southwest 413 475 18,200 1,620 Climbing Washington Center
09:41PM 38.4136 -77.9078 241° Southwest 418 481 20,000 1,680 Climbing Washington Center
09:42PM 38.3567 -78.0436 242° Southwest 428 493 21,600 1,440 Climbing Washington Center
09:43PM 38.2975 -78.1819 241° Southwest 434 499 22,900 1,200 Climbing Washington Center
09:44PM 38.2403 -78.3225 243° Southwest 439 505 24,100 1,260 Climbing Washington Center
09:45PM 38.1783 -78.4683 242° Southwest 454 522 25,500 1,260 Climbing Washington Center
09:46PM 38.1186 -78.6111 242° Southwest 454 522 26,600 900 Climbing Washington Center
09:47PM 38.0586 -78.7564 242° Southwest 459 528 27,400 780 Climbing Washington Center
09:48PM 37.9875 -78.9194 241° Southwest 475 547 28,200 780 Climbing Washington Center
09:49PM 37.9228 -79.0667 241° Southwest 480 552 29,000 780 Climbing Washington Center
09:50PM 37.8536 -79.2133 239° Southwest 485 558 29,800 780 Climbing Washington Center
09:51PM 37.7828 -79.3544 238° Southwest 485 558 30,600 1,380 Climbing Washington Center
09:52PM 37.7117 -79.4900 236° Southwest 472 543 32,700 1,680 Climbing Washington Center
09:53PM 37.6536 -79.6053 238° Southwest 451 519 34,100 1,140 Climbing Washington Center
09:54PM 37.5861 -79.7458 239° Southwest 436 502 35,100 840 Climbing Washington Center
09:55PM 37.5233 -79.8733 238° Southwest 426 490 35,900 420 Climbing Washington Center
09:56PM 37.4625 -79.9981 238° Southwest 426 490 36,000  Climbing Washington Center
09:58PM 37.3636 -80.1903 237° Southwest 440 506 36,000  Level Atlanta Center
09:59PM 37.2931 -80.3294 238° Southwest 440 506 36,000  Level Atlanta Center
10:00PM 37.2300 -80.4547 238° Southwest 440 506 36,000  Level Atlanta Center
10:01PM 37.1669 -80.5800 238° Southwest 445 512 36,000  Level Atlanta Center
10:02PM 37.1036 -80.7053 238° Southwest 445 512 36,000  Level Atlanta Center
10:03PM 37.0461 -80.8194 238° Southwest 445 512 36,000  Level Atlanta Center
10:04PM 36.9825 -80.9414 237° Southwest 445 512 36,000  Level Atlanta Center
10:05PM 36.9169 -81.0686 237° Southwest 445 512 36,000  Level Atlanta Center
10:06PM 36.8531 -81.1931 237° Southwest 445 512 36,000  Level Atlanta Center
10:07PM 36.7833 -81.3328 238° Southwest 445 512 36,000  Level Atlanta Center
10:08PM 36.7214 -81.4567 238° Southwest 439 505 36,000  Level Atlanta Center
10:09PM 36.6553 -81.5806 236° Southwest 429 494 36,000  Level Atlanta Center
10:10PM 36.5889 -81.7067 237° Southwest 435 501 36,000  Level Atlanta Center
10:11PM 36.5200 -81.8275 235° Southwest 440 506 36,000  Level Atlanta Center
10:12PM 36.4536 -81.9558 237° Southwest 440 506 36,000  Level Atlanta Center
10:13PM 36.3847 -82.0789 235° Southwest 440 506 36,000  Level Atlanta Center
10:14PM 36.3239 -82.1886 235° Southwest 440 506 36,000  Level Atlanta Center
10:15PM 36.2567 -82.3136 236° Southwest 446 513 36,000  Level Atlanta Center
10:16PM 36.1875 -82.4386 236° Southwest 446 513 36,000  Level Atlanta Center
10:17PM 36.1225 -82.5608 237° Southwest 440 506 36,000  Level Atlanta Center
10:18PM 36.0550 -82.6853 236° Southwest 440 506 36,000  Level Atlanta Center
10:19PM 35.9875 -82.8069 236° Southwest 446 513 36,000  Level Atlanta Center
10:20PM 35.9197 -82.9311 236° Southwest 446 513 36,000  Level Atlanta Center
10:21PM 35.8500 -83.0550 235° Southwest 446 513 36,000  Level Atlanta Center
10:22PM 35.7819 -83.1786 236° Southwest 441 507 36,000  Level Atlanta Center
10:23PM 35.7078 -83.3150 236° Southwest 441 507 36,000  Level Atlanta Center
10:24PM 35.6394 -83.4331 235° Southwest 441 507 36,000  Level Atlanta Center
10:25PM 35.5714 -83.5561 236° Southwest 446 513 36,000  Level Atlanta Center
10:26PM 35.5008 -83.6764 234° Southwest 446 513 36,000  Level Atlanta Center
10:27PM 35.4322 -83.8017 236° Southwest 446 513 36,000  Level Atlanta Center
10:28PM 35.3636 -83.9217 235° Southwest 446 513 36,000  Level Atlanta Center
10:29PM 35.3031 -84.0311 236° Southwest 446 513 36,000  Level Atlanta Center
10:30PM 35.2300 -84.1506 233° Southwest 446 513 36,000  Level Atlanta Center
10:31PM 35.1631 -84.2725 236° Southwest 446 513 36,000  Level Atlanta Center
10:32PM 35.0939 -84.3917 235° Southwest 440 506 36,000  Level Atlanta Center
10:33PM 35.0247 -84.5106 235° Southwest 440 506 36,000 -300 Level Atlanta Center
10:34PM 34.9575 -84.6292 235° Southwest 440 506 35,500 -1,020 Descending Atlanta Center
10:35PM 34.8858 -84.7503 234° Southwest 440 506 34,000 -780 Descending Atlanta Center
10:36PM 34.8142 -84.8736 235° Southwest 447 514 34,000  Level Atlanta Center
10:37PM 34.7381 -84.9992 234° Southwest 453 521 34,000  Level Atlanta Center
10:38PM 34.6661 -85.1222 235° Southwest 453 521 34,000  Level Atlanta Center
10:39PM 34.5939 -85.2475 235° Southwest 453 521 34,000  Level Atlanta Center
10:40PM 34.5153 -85.3750 233° Southwest 460 529 34,000  Level Atlanta Center
10:41PM 34.4408 -85.4997 234° Southwest 465 535 34,000  Level Atlanta Center
10:42PM 34.3683 -85.6292 236° Southwest 471 542 34,000  Level Atlanta Center
10:43PM 34.2936 -85.7536 234° Southwest 471 542 34,000  Level Atlanta Center
10:44PM 34.2083 -85.8900 233° Southwest 471 542 34,000  Level Atlanta Center
10:45PM 34.1333 -86.0139 234° Southwest 466 536 34,000  Level Atlanta Center
10:46PM 34.0581 -86.1375 234° Southwest 466 536 34,000  Level Atlanta Center
10:47PM 33.9786 -86.2658 233° Southwest 472 543 34,000  Level Atlanta Center
10:48PM 33.9056 -86.3892 235° Southwest 472 543 34,000  Level Atlanta Center
10:49PM 33.8278 -86.5119 233° Southwest 472 543 34,000  Level Atlanta Center
10:50PM 33.7522 -86.6347 234° Southwest 472 543 34,000  Level Atlanta Center
10:51PM 33.6789 -86.7522 233° Southwest 466 536 34,000  Level Atlanta Center
10:52PM 33.6050 -86.8722 234° Southwest 460 529 34,000  Level Atlanta Center
10:53PM 33.5314 -86.9894 233° Southwest 454 522 34,000  Level Atlanta Center
10:54PM 33.4597 -87.1064 234° Southwest 449 517 34,000  Level Atlanta Center
10:55PM 33.3944 -87.2111 233° Southwest 444 511 34,000  Level Atlanta Center
10:56PM 33.3225 -87.3278 234° Southwest 444 511 34,000  Level Atlanta Center
10:57PM 33.2483 -87.4442 233° Southwest 444 511 34,000  Level Atlanta Center
10:59PM 33.0739 -87.7194 233° Southwest 441 507 34,000  Level Memphis Center
11:00PM 33.0033 -87.8331 233° Southwest 441 507 34,000  Level Memphis Center
11:01PM 32.9367 -87.9464 235° Southwest 436 502 34,000  Level Memphis Center
11:02PM 32.8614 -88.0572 231° Southwest 436 502 34,000  Level Memphis Center
11:03PM 32.7944 -88.1653 234° Southwest 436 502 34,000  Level Memphis Center
11:04PM 32.7233 -88.2756 233° Southwest 431 496 34,000  Level Memphis Center
11:05PM 32.6519 -88.3858 232° Southwest 431 496 34,000  Level Memphis Center
11:06PM 32.5808 -88.4958 233° Southwest 426 490 34,000  Level Memphis Center
11:07PM 32.5092 -88.6058 232° Southwest 426 490 34,000  Level Memphis Center
11:08PM 32.4378 -88.7156 232° Southwest 426 490 34,000  Level Memphis Center
11:09PM 32.3617 -88.8225 230° Southwest 426 490 34,000  Level Memphis Center
11:10PM 32.2689 -88.9128 219° Southwest 426 490 34,000  Level Memphis Center
11:11PM 32.1800 -89.0000 220° Southwest 426 490 34,000  Level Memphis Center
11:12PM 32.0892 -89.0872 219° Southwest 426 490 34,000  Level Memphis Center
11:13PM 31.9983 -89.1767 220° Southwest 432 497 34,000 -300 Level Memphis Center
11:14PM 31.9072 -89.2633 219° Southwest 432 497 33,400 -1,500 Descending Memphis Center
11:15PM 31.8119 -89.3528 219° Southwest 432 497 31,100 -2,220 Descending Memphis Center
11:16PM 31.7739 -89.3889 219° Southwest 437 503 30,100 -2,040 Descending Houston Center
11:17PM 31.6761 -89.4819 219° Southwest 451 519 28,000 -1,080 Descending Houston Center
11:18PM 31.5808 -89.5719 219° Southwest 448 516 28,000  Level Houston Center
11:19PM 31.4842 -89.6656 220° Southwest 453 521 28,000 -720 Level Houston Center
11:20PM 31.3864 -89.7572 219° Southwest 452 520 26,600 -1,800 Descending Houston Center
11:21PM 31.2731 -89.8644 219° Southwest 441 507 24,400 -2,100 Descending Houston Center
11:22PM 31.1800 -89.9517 219° Southwest 431 496 22,400 -1,980 Descending Houston Center
11:23PM 31.0919 -90.0358 219° Southwest 414 476 20,400 -1,920 Descending Houston Center
11:24PM 31.0064 -90.1167 219° Southwest 400 460 18,500 -1,920 Descending Houston Center
11:25PM 30.9222 -90.1944 218° Southwest 389 448 16,600 -1,920 Descending Houston Center
11:25PM 30.8569 -90.2231 201° Southwest 383 441 15,500 -1,800 Descending Houston Center
11:26PM 30.8203 -90.2233 180° South 379 436 14,800 -1,680 Descending Houston Center
11:26PM 30.7836 -90.2211 177° South 378 435 14,300 -1,680 Descending Houston Center
11:27PM 30.7183 -90.2156 176° South 372 428 13,100 -1,920 Descending Houston Center
11:27PM 30.6831 -90.2108 173° South 366 421 12,400 -1,680 Descending Houston Center
11:28PM 30.6200 -90.2078 178° South 360 414 11,400 -1,740 Descending Houston Center
11:28PM 30.5744 -90.2128 185° South 340 391 10,500 -1,800 Descending Houston Center
11:29PM 30.5372 -90.2319 204° Southwest 310 357 9,600 -1,800 Descending Houston Center
11:29PM 30.5067 -90.2517 209° Southwest 285 328 8,900 -1,920 Descending Houston Center
11:30PM 30.4669 -90.2756 207° Southwest 291 335 7,700 -2,040 Descending Houston Center
11:30PM 30.4350 -90.2956 208° Southwest 281 323 6,900 -1,800 Descending Houston Center
11:31PM 30.3983 -90.3183 208° Southwest 284 327 5,900 -1,800 Descending Houston Center
11:31PM 30.3672 -90.3369 207° Southwest 278 320 5,100 -1,920 Descending Houston Center
11:32PM 30.3181 -90.3667 208° Southwest 278 320 4,000 -1,140 Descending Houston Center
11:32PM 30.3017 -90.3781 211° Southwest 269 310 4,000  Level Houston Center
11:33PM 30.2536 -90.4069 207° Southwest 272 313 4,000  Level Houston Center
11:33PM 30.2358 -90.4167 205° Southwest 267 307 4,000  Level Houston Center
11:34PM 30.1872 -90.4472 209° Southwest 270 311 4,000  Level Houston Center
11:34PM 30.1703 -90.4578 208° Southwest 264 304 4,000 -720 Level Houston Center
11:35PM 30.1228 -90.4475 169° South 262 302 3,300 -1,020 Descending Houston Center
11:35PM 30.1069 -90.4386 154° Southeast 232 267 3,000 -1,320 Descending Houston Center
11:36PM 30.0669 -90.4192 157° South 236 272 2,000 -1,020 Descending Houston Center
11:36PM 30.0478 -90.4119 162° South 201 231 2,000  Level Houston Center